WetterOnline ( https://www.wetteronline.de )

Wetter aktuell Messina

Aktuelles Wetter: Messina (51m)

6-stündlich | Neueste Meldungen
Ortszeit Temperatur Wetter
Do, 12.12. 13:00 13.6° C leichter Regen
Do, 12.12. 7:00 13.0° C wolkig
Do, 12.12. 1:00 13.2° C leicht bewölkt
Mi, 11.12. 19:00 13.4° C wolkig
Mi, 11.12. 13:00 14.2° C wolkig
Mi, 11.12. 7:00 12.0° C wolkig
Mi, 11.12. 1:00 11.6° C wolkig
Di, 10.12. 19:00 12.4° C wolkig
Ortszeit Temperatur Wetter
Do, 12.12. 14:00 13.2° C bedeckt, nach Regen
Do, 12.12. 13:55 13° C leicht bewölkt
Do, 12.12. 13:00 13.6° C leichter Regen
Do, 12.12. 12:55 14° C leichter Regen
Do, 12.12. 12:00 13.6° C wolkig
Do, 12.12. 11:55 14° C leicht bewölkt
Do, 12.12. 11:00 13.8° C wolkig
Do, 12.12. 10:55 14° C leicht bewölkt
Do, 12.12. 10:00 13.4° C wolkig
Ortszeit Relative Feuchte Sichtweite
Do, 12.12. 13:00 76% 12 km
Do, 12.12. 7:00 64% 10 km
Do, 12.12. 1:00 65% 12 km
Mi, 11.12. 19:00 64% 15 km
Mi, 11.12. 13:00 61% 20 km
Mi, 11.12. 7:00 100% 10 km
Mi, 11.12. 1:00 90% 10 km
Di, 10.12. 19:00 91% 12 km
Ortszeit Relative Feuchte Sichtweite
Do, 12.12. 14:00 74% 10 km
Do, 12.12. 13:55 77% >10 km
Do, 12.12. 13:00 76% 12 km
Do, 12.12. 12:55 72% >10 km
Do, 12.12. 12:00 54% 10 km
Do, 12.12. 11:55 51% >10 km
Do, 12.12. 11:00 57% 10 km
Do, 12.12. 10:55 55% >10 km
Do, 12.12. 10:00 54% 10 km
Ortszeit Niederschlagsmenge Niederschlagsart
Do, 12.12. 13:00 0.1 l/m2 in 6 Std. -
Do, 12.12. 7:00 0.6 l/m2 in 12 Std. Regen
Do, 12.12. 1:00 0.0 l/m2 in 6 Std. -
Mi, 11.12. 19:00 0.1 l/m2 in 12 Std. -
Mi, 11.12. 13:00 0.1 l/m2 in 6 Std. Sprühregen
Mi, 11.12. 7:00 8 l/m2 in 12 Std. Regen
Mi, 11.12. 1:00 2 l/m2 in 6 Std. Regen
Di, 10.12. 19:00 0.0 l/m2 in 12 Std. -
Ortszeit Niederschlagsmenge Niederschlagsart
Do, 12.12. 14:00 keine Meldung -
Do, 12.12. 13:55 keine Meldung -
Do, 12.12. 13:00 keine Meldung -
Do, 12.12. 12:55 keine Meldung -
Do, 12.12. 12:00 keine Meldung -
Do, 12.12. 11:55 keine Meldung -
Do, 12.12. 11:00 keine Meldung -
Do, 12.12. 10:55 keine Meldung -
Do, 12.12. 10:00 keine Meldung -
Ortszeit Stärke Spitze Richtung
km/h Bft. km/h Grad Sektor
Do, 12.12. 13:00 11 2 - 290° W
Do, 12.12. 7:00 17 3 - 300° NW
Do, 12.12. 1:00 9 2 - 320° NW
Mi, 11.12. 19:00 9 2 - 330° NW
Mi, 11.12. 13:00 9 2 - 20° N
Mi, 11.12. 7:00 6 1 - 310° NW
Mi, 11.12. 1:00 7 2 - 320° NW
Di, 10.12. 19:00 9 2 - 40° NO
Ortszeit Stärke Spitze Richtung
km/h Bft. km/h Grad Sektor
Do, 12.12. 14:00 19 3 - 280° W
Do, 12.12. 13:55 19 3 46 280° W
Do, 12.12. 13:00 11 2 - 290° W
Do, 12.12. 12:55 11 2 30 290° W
Do, 12.12. 12:00 6 1 - 200° S
Do, 12.12. 11:55 6 1 - 200° S
Do, 12.12. 11:00 6 1 - 280° W
Do, 12.12. 10:55 6 1 - 280° W
Do, 12.12. 10:00 11 2 - 310° NW
Ortszeit Untergrenze Bedeckung Gattung
total tief tief mittel hoch
Do, 12.12. 13:00 600 m 8/8 5/8 Sc Ns -
Do, 12.12. 7:00 900 m 7/8 5/8 Sc - Cs
Do, 12.12. 1:00 1200 m 4/8 2/8 Sc As -
Mi, 11.12. 19:00 1200 m 6/8 4/8 Sc As Ci
Mi, 11.12. 13:00 1050 m 7/8 4/8 Sc As Ci
Mi, 11.12. 7:00 450 m 7/8 5/8 Cb As -
Mi, 11.12. 1:00 600 m 7/8 4/8 Sc As Cs
Di, 10.12. 19:00 900 m 7/8 4/8 Cb As Cs
Ortszeit Bedeckungsgrad in Achtel und Wolkenuntergrenze
Do, 12.12. 14:00 2(540m) 3(600m) 8(2400m)
Do, 12.12. 13:55 1-2(540m) 3-4(600m)
Do, 12.12. 13:00 5(600m) 8(2400m)
Do, 12.12. 12:55 5-7(600m)
Do, 12.12. 12:00 4(900m) 3(2400m)
Do, 12.12. 11:55 3-4(900m)
Do, 12.12. 11:00 4(900m) 3(2400m)
Do, 12.12. 10:55 3-4(900m)
Do, 12.12. 10:00 3(900m) 4(2400m)
Ortszeit Luftdruck NN (hPa) Tendenz (hPa in 3 Std.)
Do, 12.12. 13:00 1007 - 0,6
Do, 12.12. 7:00 1007 - 0,8
Do, 12.12. 1:00 1008 0,0
Mi, 11.12. 19:00 1008 + 1,0
Mi, 11.12. 13:00 1007 - 0,7
Mi, 11.12. 7:00 1007 0,0
Mi, 11.12. 1:00 1008 0,0
Di, 10.12. 19:00 1007 + 0,2
Ortszeit Luftdruck NN (hPa) Tendenz (hPa in 3 Std.)
Do, 12.12. 14:00 1007 - 0,9
Do, 12.12. 13:55 1006 keine Meldung
Do, 12.12. 13:00 1007 - 0,6
Do, 12.12. 12:55 1006 keine Meldung
Do, 12.12. 12:00 1007 0,0
Do, 12.12. 11:55 1007 keine Meldung
Do, 12.12. 11:00 1007 + 0,1
Do, 12.12. 10:55 1007 keine Meldung
Do, 12.12. 10:00 1007 + 0,7
Ortszeit Schneehöhe (cm)
Do, 12.12. 13:00 -
Do, 12.12. 7:00 -
Do, 12.12. 1:00 -
Mi, 11.12. 19:00 -
Mi, 11.12. 13:00 -
Mi, 11.12. 7:00 -
Mi, 11.12. 1:00 -
Di, 10.12. 19:00 -
Ortszeit Schneehöhe (cm)
Do, 12.12. 14:00 -
Do, 12.12. 13:55 -
Do, 12.12. 13:00 -
Do, 12.12. 12:55 -
Do, 12.12. 12:00 -
Do, 12.12. 11:55 -
Do, 12.12. 11:00 -
Do, 12.12. 10:55 -
Do, 12.12. 10:00 -
Link zu dieser Seite / Seite empfehlen

Das Wetter in ...